createdAt,value
2023-09-29T00:00:26.888Z,2.60
2023-09-29T00:00:59.074Z,2.60
2023-09-29T00:01:33.483Z,2.72
2023-09-29T00:02:05.597Z,2.95
2023-09-29T00:02:37.730Z,2.47
2023-09-29T00:03:10.316Z,2.70
2023-09-29T00:03:42.665Z,2.83
2023-09-29T00:04:15.776Z,2.72
2023-09-29T00:04:47.877Z,2.90
2023-09-29T00:05:20.372Z,2.30
2023-09-29T00:05:52.773Z,2.50
2023-09-29T00:06:24.928Z,2.95
2023-09-29T00:06:57.102Z,3.08
2023-09-29T00:07:29.164Z,2.40
2023-09-29T00:08:01.294Z,3.50
2023-09-29T00:08:33.441Z,2.83
2023-09-29T00:09:08.310Z,2.80
2023-09-29T00:09:40.487Z,2.72
2023-09-29T00:10:19.251Z,2.97
2023-09-29T00:10:51.593Z,2.70
2023-09-29T00:11:24.130Z,2.78
2023-09-29T00:11:56.556Z,3.00
2023-09-29T00:12:28.780Z,2.60
2023-09-29T00:13:01.230Z,2.67
2023-09-29T00:13:33.342Z,2.90
2023-09-29T00:14:05.557Z,2.60
2023-09-29T00:14:38.139Z,2.58
2023-09-29T00:15:10.702Z,2.75
2023-09-29T00:15:42.767Z,3.10
2023-09-29T00:16:14.873Z,2.50
2023-09-29T00:16:46.979Z,3.03
2023-09-29T00:17:19.073Z,2.67
2023-09-29T00:17:51.322Z,2.80
2023-09-29T00:18:24.524Z,2.85
2023-09-29T00:18:57.525Z,2.63
2023-09-29T00:19:29.886Z,3.35
2023-09-29T00:20:03.689Z,2.80
2023-09-29T00:20:36.064Z,2.90
2023-09-29T00:21:08.233Z,2.60
2023-09-29T00:21:40.317Z,2.70
2023-09-29T00:22:12.436Z,2.65
2023-09-29T00:22:44.561Z,2.75
2023-09-29T00:23:16.764Z,3.00
2023-09-29T00:23:49.431Z,2.50
2023-09-29T00:24:21.609Z,2.80
2023-09-29T00:24:55.599Z,2.88
2023-09-29T00:25:27.982Z,2.70
2023-09-29T00:26:00.228Z,2.80
2023-09-29T00:26:32.534Z,2.60
2023-09-29T00:27:04.682Z,2.92
2023-09-29T00:27:37.216Z,2.97
2023-09-29T00:28:09.354Z,2.58
2023-09-29T00:28:41.846Z,2.80
2023-09-29T00:29:14.001Z,2.95
2023-09-29T00:29:46.396Z,2.67
2023-09-29T00:30:18.953Z,2.80
2023-09-29T00:30:51.254Z,3.05
2023-09-29T00:31:23.466Z,2.80
2023-09-29T00:31:55.575Z,2.30
2023-09-29T00:32:27.702Z,2.58
2023-09-29T00:32:59.930Z,2.80
2023-09-29T00:33:32.692Z,2.58
2023-09-29T00:34:04.943Z,2.42
2023-09-29T00:34:37.490Z,3.08
2023-09-29T00:35:19.132Z,2.70
2023-09-29T00:35:51.289Z,2.80
2023-09-29T00:36:23.445Z,2.85
2023-09-29T00:36:55.513Z,3.25
2023-09-29T00:37:27.728Z,2.63
2023-09-29T00:38:00.720Z,2.80
2023-09-29T00:38:34.768Z,3.03
2023-09-29T00:39:09.507Z,2.97
2023-09-29T00:39:41.724Z,2.50
2023-09-29T00:40:14.608Z,2.20
2023-09-29T00:40:47.216Z,2.67
2023-09-29T00:41:19.498Z,2.65
2023-09-29T00:41:52.535Z,2.40
2023-09-29T00:42:24.698Z,3.22
2023-09-29T00:42:58.980Z,2.72
2023-09-29T00:43:31.176Z,2.75
2023-09-29T00:44:04.153Z,2.63
2023-09-29T00:44:36.477Z,2.75
2023-09-29T00:45:09.390Z,2.47
2023-09-29T00:45:41.625Z,2.80
2023-09-29T00:46:13.924Z,2.78
2023-09-29T00:46:46.371Z,2.50
2023-09-29T00:47:18.606Z,2.90
2023-09-29T00:47:57.134Z,2.70
2023-09-29T00:48:31.843Z,2.70
2023-09-29T00:49:06.134Z,2.40
2023-09-29T00:49:38.718Z,2.83
2023-09-29T00:50:11.885Z,2.40
2023-09-29T00:50:46.204Z,2.55
2023-09-29T00:51:21.501Z,2.80
2023-09-29T00:51:53.781Z,2.63
2023-09-29T00:52:28.221Z,2.75
2023-09-29T00:53:00.902Z,2.42
2023-09-29T00:53:35.227Z,3.00
2023-09-29T00:54:09.457Z,2.55
2023-09-29T00:54:42.904Z,3.00
2023-09-29T00:55:17.142Z,3.20
2023-09-29T00:55:49.544Z,2.67
2023-09-29T00:56:21.997Z,2.65
2023-09-29T00:56:54.291Z,2.97
2023-09-29T00:57:27.066Z,2.60
2023-09-29T00:58:00.054Z,2.92
2023-09-29T00:58:32.409Z,2.60
2023-09-29T00:59:07.160Z,2.70
2023-09-29T00:59:39.472Z,2.28
2023-09-29T01:00:16.529Z,2.47
2023-09-29T01:00:48.790Z,2.55
2023-09-29T01:01:20.890Z,2.97
2023-09-29T01:01:53.654Z,2.35
2023-09-29T01:02:26.108Z,3.10
2023-09-29T01:02:58.833Z,2.30
2023-09-29T01:03:31.206Z,2.78
2023-09-29T01:04:03.990Z,2.70
2023-09-29T01:04:36.435Z,2.78
2023-09-29T01:05:11.209Z,2.80
2023-09-29T01:05:45.175Z,2.58
2023-09-29T01:06:17.962Z,2.95
2023-09-29T01:06:50.452Z,2.58
2023-09-29T01:07:22.571Z,2.65
2023-09-29T01:07:54.681Z,2.65
2023-09-29T01:08:28.010Z,2.65
2023-09-29T01:09:00.565Z,2.40
2023-09-29T01:09:32.762Z,3.20
2023-09-29T01:10:06.273Z,2.90
2023-09-29T01:10:38.757Z,3.42
2023-09-29T01:11:10.990Z,2.50
2023-09-29T01:11:46.280Z,2.60
2023-09-29T01:12:28.515Z,3.20
2023-09-29T01:13:00.661Z,2.83
2023-09-29T01:13:32.761Z,2.88
2023-09-29T01:14:05.410Z,2.72
2023-09-29T01:14:37.600Z,2.30
2023-09-29T01:15:14.119Z,2.60
2023-09-29T01:15:46.818Z,2.78
2023-09-29T01:16:19.525Z,2.72
2023-09-29T01:16:53.452Z,2.60
2023-09-29T01:17:26.499Z,3.20
2023-09-29T01:17:59.133Z,2.78
2023-09-29T01:18:31.611Z,2.85
2023-09-29T01:19:04.120Z,2.67
2023-09-29T01:19:37.001Z,2.70
2023-09-29T01:20:17.725Z,2.70
2023-09-29T01:20:50.137Z,2.45
2023-09-29T01:21:22.239Z,2.47
2023-09-29T01:21:54.373Z,2.60
2023-09-29T01:22:27.393Z,2.47
2023-09-29T01:23:01.505Z,2.90
2023-09-29T01:23:34.367Z,2.72
2023-09-29T01:24:08.267Z,2.75
2023-09-29T01:24:40.399Z,2.90
2023-09-29T01:25:13.998Z,2.50
2023-09-29T01:25:47.266Z,2.95
2023-09-29T01:26:19.690Z,2.70
2023-09-29T01:26:51.877Z,2.63
2023-09-29T01:27:24.014Z,2.40
2023-09-29T01:27:56.808Z,2.70
2023-09-29T01:28:29.724Z,2.88
2023-09-29T01:29:01.954Z,2.45
2023-09-29T01:29:34.073Z,2.88
2023-09-29T01:30:07.895Z,2.67
2023-09-29T01:30:43.146Z,2.50
2023-09-29T01:31:15.303Z,2.40
2023-09-29T01:31:47.595Z,2.75
2023-09-29T01:32:19.662Z,3.10
2023-09-29T01:32:52.797Z,2.53
2023-09-29T01:33:26.846Z,2.38
2023-09-29T01:33:59.130Z,3.25
2023-09-29T01:34:32.530Z,2.58
2023-09-29T01:35:05.289Z,2.40
2023-09-29T01:35:37.499Z,2.55
2023-09-29T01:36:09.953Z,2.95
2023-09-29T01:36:42.065Z,2.95
2023-09-29T01:37:14.234Z,3.20
2023-09-29T01:37:47.800Z,2.67
2023-09-29T01:38:19.972Z,3.10
2023-09-29T01:38:52.161Z,2.80
2023-09-29T01:39:24.274Z,2.83
2023-09-29T01:39:56.465Z,2.40
2023-09-29T01:40:29.289Z,2.50
2023-09-29T01:41:01.413Z,2.47
2023-09-29T01:41:33.797Z,2.47
2023-09-29T01:42:08.939Z,2.75
2023-09-29T01:42:41.491Z,2.67
2023-09-29T01:43:13.643Z,2.75
2023-09-29T01:43:46.597Z,2.45
2023-09-29T01:44:18.988Z,2.35
2023-09-29T01:44:52.463Z,2.58
2023-09-29T01:45:25.095Z,2.67
2023-09-29T01:45:57.557Z,2.75
2023-09-29T01:46:31.243Z,2.75
2023-09-29T01:47:03.731Z,2.65
2023-09-29T01:47:39.579Z,2.30
2023-09-29T01:48:13.141Z,2.45
2023-09-29T01:48:46.169Z,3.05
2023-09-29T01:49:18.630Z,2.78
2023-09-29T01:49:51.076Z,2.65
2023-09-29T01:50:23.662Z,2.90
2023-09-29T01:50:55.938Z,2.40
2023-09-29T01:51:31.317Z,2.25
2023-09-29T01:52:03.726Z,2.22
2023-09-29T01:52:35.979Z,2.53
2023-09-29T01:53:08.437Z,2.90
2023-09-29T01:53:40.713Z,2.70
2023-09-29T01:54:13.581Z,2.88
2023-09-29T01:54:45.935Z,2.50
2023-09-29T01:55:24.119Z,2.70
2023-09-29T01:55:56.477Z,2.50
2023-09-29T01:56:29.845Z,2.70
2023-09-29T01:57:02.494Z,2.88
2023-09-29T01:57:34.944Z,2.70
2023-09-29T01:58:07.060Z,2.55
2023-09-29T01:58:41.696Z,2.58
2023-09-29T01:59:14.238Z,2.30
2023-09-29T01:59:46.427Z,2.70
2023-09-29T02:00:23.260Z,2.30
2023-09-29T02:00:55.805Z,2.22
2023-09-29T02:01:28.116Z,2.42
2023-09-29T02:02:00.368Z,2.78
2023-09-29T02:02:32.607Z,2.75
2023-09-29T02:03:08.099Z,2.78
2023-09-29T02:03:40.709Z,2.47
2023-09-29T02:04:13.238Z,2.30
2023-09-29T02:04:45.485Z,2.58
2023-09-29T02:05:18.284Z,2.47
2023-09-29T02:05:52.125Z,2.42
2023-09-29T02:06:24.412Z,2.67
2023-09-29T02:06:56.517Z,2.55
2023-09-29T02:07:28.608Z,2.40
2023-09-29T02:08:03.565Z,2.80
2023-09-29T02:08:36.536Z,2.50
2023-09-29T02:09:11.225Z,2.78
2023-09-29T02:09:44.151Z,2.13
2023-09-29T02:10:21.401Z,2.60
2023-09-29T02:10:58.446Z,2.38
2023-09-29T02:11:30.864Z,2.60
2023-09-29T02:12:03.130Z,2.53
2023-09-29T02:12:35.715Z,2.40
2023-09-29T02:13:09.118Z,2.58
2023-09-29T02:13:48.527Z,2.30
2023-09-29T02:14:30.255Z,2.53
2023-09-29T02:15:02.751Z,2.70
2023-09-29T02:15:37.021Z,2.22
2023-09-29T02:16:13.101Z,2.80
2023-09-29T02:16:45.262Z,2.70
2023-09-29T02:17:17.430Z,2.65
2023-09-29T02:17:49.950Z,2.53
2023-09-29T02:18:22.475Z,2.50
2023-09-29T02:18:56.565Z,2.80
2023-09-29T02:19:29.621Z,2.58
2023-09-29T02:20:05.745Z,2.38
2023-09-29T02:20:40.415Z,2.97
2023-09-29T02:21:19.984Z,2.40
2023-09-29T02:21:52.164Z,2.30
2023-09-29T02:22:24.315Z,2.47
2023-09-29T02:22:56.932Z,2.58
2023-09-29T02:23:29.136Z,2.75
2023-09-29T02:24:01.319Z,2.50
2023-09-29T02:24:34.380Z,2.75
2023-09-29T02:25:07.775Z,2.60
2023-09-29T02:25:39.894Z,2.75
2023-09-29T02:26:12.025Z,2.47
2023-09-29T02:26:45.682Z,2.28
2023-09-29T02:27:17.889Z,1.95
2023-09-29T02:27:50.050Z,2.47
2023-09-29T02:28:24.126Z,2.20
2023-09-29T02:28:57.260Z,2.50
2023-09-29T02:29:29.612Z,2.20
2023-09-29T02:30:01.772Z,2.63
2023-09-29T02:30:33.895Z,2.50
2023-09-29T02:31:12.316Z,2.60
2023-09-29T02:31:45.151Z,2.22
2023-09-29T02:32:17.284Z,2.42
2023-09-29T02:32:50.062Z,2.42
2023-09-29T02:33:22.321Z,2.33
2023-09-29T02:33:54.518Z,3.20
2023-09-29T02:34:27.333Z,2.40
2023-09-29T02:34:59.881Z,2.92
2023-09-29T02:35:32.385Z,2.90
2023-09-29T02:36:06.199Z,2.10
2023-09-29T02:36:41.255Z,2.38
2023-09-29T02:37:13.347Z,2.40
2023-09-29T02:37:45.539Z,2.58
2023-09-29T02:38:17.914Z,2.55
2023-09-29T02:38:50.257Z,2.38
2023-09-29T02:39:23.895Z,2.30
2023-09-29T02:39:56.442Z,2.50
2023-09-29T02:40:29.926Z,2.53
2023-09-29T02:41:02.181Z,2.80
2023-09-29T02:41:34.313Z,2.47
2023-09-29T02:42:06.428Z,2.55
2023-09-29T02:42:38.830Z,2.20
2023-09-29T02:43:10.915Z,2.30
2023-09-29T02:43:43.091Z,2.42
2023-09-29T02:44:15.251Z,2.22
2023-09-29T02:44:47.386Z,2.50
2023-09-29T02:45:19.582Z,2.55
2023-09-29T02:45:51.758Z,2.50
2023-09-29T02:46:23.938Z,2.25
2023-09-29T02:46:56.108Z,2.25
2023-09-29T02:47:28.453Z,2.05
2023-09-29T02:48:00.804Z,2.00
2023-09-29T02:48:33.546Z,2.40
2023-09-29T02:49:06.191Z,2.35
2023-09-29T02:49:38.599Z,2.25
2023-09-29T02:50:11.200Z,2.33
2023-09-29T02:50:43.328Z,2.30
2023-09-29T02:51:16.613Z,2.20
2023-09-29T02:51:48.786Z,2.20
2023-09-29T02:52:21.682Z,2.42
2023-09-29T02:52:54.266Z,2.40
2023-09-29T02:53:26.865Z,2.10
2023-09-29T02:53:58.995Z,2.13
2023-09-29T02:54:31.326Z,2.47
2023-09-29T02:55:05.915Z,2.28
2023-09-29T02:55:38.301Z,2.33
2023-09-29T02:56:12.858Z,2.10
2023-09-29T02:56:44.990Z,2.30
2023-09-29T02:57:17.509Z,2.25
2023-09-29T02:57:49.760Z,2.20
2023-09-29T02:58:21.998Z,2.13
2023-09-29T02:58:55.988Z,2.22
2023-09-29T02:59:28.614Z,2.00
2023-09-29T03:00:00.804Z,2.40
2023-09-29T03:00:33.089Z,1.90
2023-09-29T03:01:17.715Z,2.35
2023-09-29T03:01:51.102Z,2.38
2023-09-29T03:02:23.284Z,2.00
2023-09-29T03:02:55.618Z,2.05
2023-09-29T03:03:27.970Z,2.22
2023-09-29T03:04:00.293Z,2.33
2023-09-29T03:04:32.550Z,1.92
2023-09-29T03:05:07.643Z,1.90
2023-09-29T03:05:44.295Z,2.05
2023-09-29T03:06:21.932Z,2.38
2023-09-29T03:06:54.274Z,2.00
2023-09-29T03:07:26.369Z,2.47
2023-09-29T03:07:58.494Z,2.20
2023-09-29T03:08:30.648Z,2.00
2023-09-29T03:09:02.791Z,2.00
2023-09-29T03:09:35.220Z,2.08
2023-09-29T03:10:07.574Z,2.17
2023-09-29T03:10:44.348Z,2.17
2023-09-29T03:11:17.316Z,1.90
2023-09-29T03:11:51.282Z,2.65
2023-09-29T03:12:23.416Z,2.20
2023-09-29T03:12:59.413Z,2.25
2023-09-29T03:13:31.828Z,2.28
2023-09-29T03:14:03.977Z,1.95
2023-09-29T03:14:36.109Z,1.67
2023-09-29T03:15:10.174Z,2.33
2023-09-29T03:15:43.103Z,2.20
2023-09-29T03:16:15.200Z,2.35
2023-09-29T03:16:47.924Z,2.55
2023-09-29T03:17:20.075Z,2.00
2023-09-29T03:17:58.410Z,2.50
2023-09-29T03:18:32.074Z,2.10
2023-09-29T03:19:04.529Z,2.13
2023-09-29T03:19:37.926Z,2.03
2023-09-29T03:20:13.325Z,2.50
2023-09-29T03:20:45.451Z,2.50
2023-09-29T03:21:17.890Z,2.10
2023-09-29T03:21:49.969Z,2.03
2023-09-29T03:22:22.110Z,1.88
2023-09-29T03:22:57.454Z,2.10
2023-09-29T03:23:29.675Z,2.10
2023-09-29T03:24:03.529Z,2.10
2023-09-29T03:24:38.665Z,2.13
2023-09-29T03:25:11.159Z,2.42
2023-09-29T03:25:43.273Z,1.95
2023-09-29T03:26:18.915Z,2.05
2023-09-29T03:26:51.005Z,2.08
2023-09-29T03:27:24.665Z,2.08
2023-09-29T03:27:56.914Z,2.42
2023-09-29T03:28:29.038Z,2.35
2023-09-29T03:29:01.253Z,1.85
2023-09-29T03:29:34.704Z,2.40
2023-09-29T03:30:08.509Z,2.25
2023-09-29T03:30:40.747Z,2.17
2023-09-29T03:31:12.903Z,2.08
2023-09-29T03:31:45.076Z,2.00
2023-09-29T03:32:17.168Z,2.40
2023-09-29T03:32:49.342Z,2.40
2023-09-29T03:33:21.985Z,1.60
2023-09-29T03:33:54.202Z,1.98
2023-09-29T03:34:26.418Z,1.88
2023-09-29T03:34:58.566Z,2.05
2023-09-29T03:35:30.868Z,2.42
2023-09-29T03:36:05.164Z,1.90
2023-09-29T03:36:37.444Z,1.80
2023-09-29T03:37:09.617Z,2.03
2023-09-29T03:37:43.472Z,2.05
2023-09-29T03:38:15.718Z,2.67
2023-09-29T03:38:48.240Z,2.40
2023-09-29T03:39:20.401Z,1.75
2023-09-29T03:39:52.589Z,2.17
2023-09-29T03:40:25.762Z,2.05
2023-09-29T03:40:58.237Z,2.22
2023-09-29T03:41:30.960Z,2.00
2023-09-29T03:42:03.206Z,2.03
2023-09-29T03:42:35.960Z,1.83
2023-09-29T03:43:09.216Z,2.47
2023-09-29T03:43:41.629Z,1.92
2023-09-29T03:44:13.751Z,2.53
2023-09-29T03:44:45.903Z,2.33
2023-09-29T03:45:18.334Z,2.30
2023-09-29T03:45:50.895Z,2.10
2023-09-29T03:46:25.371Z,1.90
2023-09-29T03:46:57.560Z,1.70
2023-09-29T03:47:30.059Z,2.08
2023-09-29T03:48:05.682Z,1.80
2023-09-29T03:48:38.056Z,1.88
2023-09-29T03:49:13.715Z,2.05
2023-09-29T03:49:45.831Z,1.75
2023-09-29T03:50:17.988Z,1.83
2023-09-29T03:50:51.199Z,2.40
2023-09-29T03:51:24.224Z,2.13
2023-09-29T03:51:57.625Z,2.15
2023-09-29T03:52:33.572Z,1.95
2023-09-29T03:53:05.907Z,2.10
2023-09-29T03:53:39.527Z,2.10
2023-09-29T03:54:11.703Z,2.00
2023-09-29T03:54:43.801Z,2.42
2023-09-29T03:55:16.659Z,2.30
2023-09-29T03:55:48.818Z,2.05
2023-09-29T03:56:24.460Z,2.20
2023-09-29T03:56:57.046Z,2.00
2023-09-29T03:57:29.173Z,1.98
2023-09-29T03:58:01.585Z,1.98
2023-09-29T03:58:33.703Z,1.75
2023-09-29T03:59:06.636Z,2.20
2023-09-29T03:59:38.851Z,2.33
2023-09-29T04:00:15.463Z,2.03
2023-09-29T04:00:47.772Z,2.08
2023-09-29T04:01:19.961Z,2.17
2023-09-29T04:01:52.089Z,1.92
2023-09-29T04:02:24.206Z,2.42
2023-09-29T04:02:56.526Z,2.22
2023-09-29T04:03:28.907Z,1.92
2023-09-29T04:04:02.392Z,2.35
2023-09-29T04:04:34.707Z,2.00
2023-09-29T04:05:07.083Z,2.08
2023-09-29T04:05:39.284Z,1.90
2023-09-29T04:06:11.602Z,2.45
2023-09-29T04:06:43.763Z,1.80
2023-09-29T04:07:16.910Z,2.28
2023-09-29T04:07:49.147Z,2.00
2023-09-29T04:08:21.245Z,1.95
2023-09-29T04:08:55.620Z,2.03
2023-09-29T04:09:27.934Z,1.80
2023-09-29T04:10:00.049Z,1.65
2023-09-29T04:10:32.124Z,1.73
2023-09-29T04:11:05.139Z,2.08
2023-09-29T04:11:37.291Z,1.85
2023-09-29T04:12:09.414Z,2.00
2023-09-29T04:12:47.506Z,2.00
2023-09-29T04:13:20.233Z,2.35
2023-09-29T04:13:52.344Z,1.90
2023-09-29T04:14:33.877Z,1.75
2023-09-29T04:15:07.277Z,2.15
2023-09-29T04:15:40.450Z,1.75
2023-09-29T04:16:13.965Z,2.00
2023-09-29T04:16:46.796Z,2.03
2023-09-29T04:17:19.773Z,1.65
2023-09-29T04:17:51.956Z,2.00
2023-09-29T04:18:24.222Z,1.60
2023-09-29T04:18:56.593Z,2.10
2023-09-29T04:19:29.072Z,1.90
2023-09-29T04:20:01.279Z,2.28
2023-09-29T04:20:33.427Z,1.80
2023-09-29T04:21:10.857Z,1.67
2023-09-29T04:21:43.060Z,1.73
2023-09-29T04:22:15.726Z,1.70
2023-09-29T04:22:47.940Z,1.70
2023-09-29T04:23:20.119Z,1.85
2023-09-29T04:23:52.232Z,2.47
2023-09-29T04:24:24.353Z,1.90
2023-09-29T04:24:57.148Z,1.80
2023-09-29T04:25:29.207Z,1.95
2023-09-29T04:26:01.321Z,1.77
2023-09-29T04:26:33.487Z,1.80
2023-09-29T04:27:05.683Z,1.90
2023-09-29T04:27:38.294Z,2.13
2023-09-29T04:28:10.461Z,1.75
2023-09-29T04:28:42.669Z,1.80
2023-09-29T04:29:15.436Z,1.75
2023-09-29T04:29:47.617Z,1.83
2023-09-29T04:30:19.792Z,1.80
2023-09-29T04:30:51.910Z,1.73
2023-09-29T04:31:24.229Z,2.00
2023-09-29T04:31:56.497Z,2.13
2023-09-29T04:32:28.639Z,3.25
2023-09-29T04:33:00.797Z,2.22
2023-09-29T04:33:33.069Z,1.77
2023-09-29T04:34:05.378Z,2.00
2023-09-29T04:34:37.566Z,1.90
2023-09-29T04:35:09.859Z,1.90
2023-09-29T04:35:44.444Z,2.05
2023-09-29T04:36:16.872Z,1.80
2023-09-29T04:36:48.981Z,1.85
2023-09-29T04:37:21.174Z,1.55
2023-09-29T04:37:54.042Z,1.85
2023-09-29T04:38:26.185Z,2.20
2023-09-29T04:38:58.505Z,2.05
2023-09-29T04:39:30.719Z,1.88
2023-09-29T04:40:03.403Z,2.00
2023-09-29T04:40:35.652Z,2.00
2023-09-29T04:41:08.006Z,1.92
2023-09-29T04:41:40.433Z,1.75
2023-09-29T04:42:12.745Z,1.98
2023-09-29T04:42:44.933Z,2.00
2023-09-29T04:43:17.027Z,1.88
2023-09-29T04:43:49.110Z,1.83
2023-09-29T04:44:21.203Z,1.95
2023-09-29T04:44:53.420Z,1.77
2023-09-29T04:45:25.651Z,2.13
2023-09-29T04:45:57.817Z,2.00
2023-09-29T04:46:29.939Z,1.73
2023-09-29T04:47:02.122Z,2.05
2023-09-29T04:47:34.722Z,1.63
2023-09-29T04:48:07.074Z,1.90
2023-09-29T04:48:39.291Z,1.73
2023-09-29T04:49:11.813Z,1.70
2023-09-29T04:49:43.948Z,1.70
2023-09-29T04:50:16.098Z,2.10
2023-09-29T04:50:48.324Z,2.22
2023-09-29T04:51:21.328Z,2.30
2023-09-29T04:51:53.488Z,1.63
2023-09-29T04:52:28.536Z,2.20
2023-09-29T04:53:00.625Z,1.83
2023-09-29T04:53:32.790Z,2.17
2023-09-29T04:54:05.138Z,1.90
2023-09-29T04:54:37.315Z,1.80
2023-09-29T04:55:09.736Z,1.70
2023-09-29T04:55:41.995Z,1.90
2023-09-29T04:56:14.118Z,2.00
2023-09-29T04:56:46.582Z,2.13
2023-09-29T04:57:18.707Z,2.33
2023-09-29T04:57:53.654Z,1.70
2023-09-29T04:58:26.025Z,1.65
2023-09-29T04:58:58.552Z,1.60
2023-09-29T04:59:30.934Z,1.88
2023-09-29T05:00:04.243Z,1.90
2023-09-29T05:00:38.787Z,1.70
2023-09-29T05:01:17.335Z,2.00
2023-09-29T05:01:49.561Z,2.03
2023-09-29T05:02:21.747Z,1.85
2023-09-29T05:02:53.902Z,1.92
2023-09-29T05:03:26.238Z,1.75
2023-09-29T05:03:58.601Z,1.92
2023-09-29T05:04:31.148Z,1.90
2023-09-29T05:05:03.762Z,2.08
2023-09-29T05:05:36.019Z,1.60
2023-09-29T05:06:08.753Z,1.80
2023-09-29T05:06:40.962Z,1.70
2023-09-29T05:07:13.577Z,1.77
2023-09-29T05:07:46.215Z,1.58
2023-09-29T05:08:18.612Z,1.60
2023-09-29T05:08:51.174Z,1.73
2023-09-29T05:09:23.278Z,2.10
2023-09-29T05:09:55.330Z,1.90
2023-09-29T05:10:27.547Z,2.15
2023-09-29T05:10:59.680Z,1.83
2023-09-29T05:11:32.748Z,1.80
2023-09-29T05:12:05.563Z,1.70
2023-09-29T05:12:38.954Z,1.80
2023-09-29T05:13:11.122Z,1.67
2023-09-29T05:13:43.260Z,1.80
2023-09-29T05:14:15.434Z,2.05
2023-09-29T05:14:48.360Z,1.90
2023-09-29T05:15:20.448Z,2.03
2023-09-29T05:15:52.557Z,2.20
2023-09-29T05:16:25.855Z,1.90
2023-09-29T05:16:58.061Z,2.20
2023-09-29T05:17:44.414Z,2.40
2023-09-29T05:18:24.608Z,2.20
2023-09-29T05:18:57.379Z,1.77
2023-09-29T05:19:29.793Z,2.08
2023-09-29T05:20:01.934Z,2.13
2023-09-29T05:20:34.810Z,1.80
2023-09-29T05:21:07.035Z,1.67
2023-09-29T05:21:39.310Z,2.17
2023-09-29T05:22:11.454Z,1.70
2023-09-29T05:22:43.569Z,1.67
2023-09-29T05:23:15.679Z,2.05
2023-09-29T05:23:48.086Z,1.67
2023-09-29T05:24:20.258Z,1.70
2023-09-29T05:24:54.924Z,1.40
2023-09-29T05:25:27.139Z,2.10
2023-09-29T05:26:02.966Z,1.80
2023-09-29T05:26:35.212Z,1.55
2023-09-29T05:27:07.445Z,1.83
2023-09-29T05:27:39.765Z,1.70
2023-09-29T05:28:11.845Z,1.85
2023-09-29T05:28:43.957Z,2.20
2023-09-29T05:29:16.110Z,1.92
2023-09-29T05:29:48.337Z,1.67
2023-09-29T05:30:20.658Z,1.83
2023-09-29T05:30:55.932Z,1.90
2023-09-29T05:31:28.298Z,1.90
2023-09-29T05:32:00.464Z,1.50
2023-09-29T05:32:32.781Z,1.98
2023-09-29T05:33:05.438Z,1.90
2023-09-29T05:33:37.737Z,1.70
2023-09-29T05:34:09.933Z,1.80
2023-09-29T05:34:42.263Z,1.80
2023-09-29T05:35:14.460Z,1.70
2023-09-29T05:35:49.798Z,2.10
2023-09-29T05:36:22.625Z,1.60
2023-09-29T05:36:55.254Z,2.03
2023-09-29T05:37:27.318Z,1.70
2023-09-29T05:37:59.434Z,1.80
2023-09-29T05:38:31.605Z,1.70
2023-09-29T05:39:05.055Z,1.88
2023-09-29T05:39:37.146Z,1.80
2023-09-29T05:40:09.689Z,1.85
2023-09-29T05:40:41.820Z,1.98
2023-09-29T05:41:13.958Z,1.88
2023-09-29T05:41:46.161Z,2.10
2023-09-29T05:42:27.864Z,2.10
2023-09-29T05:43:08.360Z,1.70
2023-09-29T05:43:40.534Z,2.03
2023-09-29T05:44:12.622Z,1.80
2023-09-29T05:44:44.743Z,1.70
2023-09-29T05:45:16.917Z,1.63
2023-09-29T05:45:49.125Z,2.15
2023-09-29T05:46:21.284Z,1.92
2023-09-29T05:46:53.499Z,2.17
2023-09-29T05:47:25.643Z,1.60
2023-09-29T05:47:57.831Z,1.88
2023-09-29T05:48:30.023Z,1.67
2023-09-29T05:49:02.244Z,1.75
2023-09-29T05:49:34.533Z,1.88
2023-09-29T05:50:17.440Z,1.90
2023-09-29T05:50:54.009Z,1.52
2023-09-29T05:51:26.165Z,1.80
2023-09-29T05:51:58.227Z,2.30
2023-09-29T05:52:30.391Z,1.70
2023-09-29T05:53:10.369Z,1.70
2023-09-29T05:53:43.570Z,1.75
2023-09-29T05:54:15.748Z,1.85
2023-09-29T05:54:48.053Z,1.80
2023-09-29T05:55:20.201Z,1.70
2023-09-29T05:55:52.391Z,1.65
2023-09-29T05:56:24.526Z,1.98
2023-09-29T05:56:56.847Z,1.83
2023-09-29T05:57:30.468Z,1.88
2023-09-29T05:58:03.870Z,2.15
2023-09-29T05:58:37.634Z,1.70
2023-09-29T05:59:10.431Z,1.73
2023-09-29T05:59:42.659Z,1.83
2023-09-29T06:00:14.902Z,1.55
2023-09-29T06:00:47.193Z,2.05
2023-09-29T06:01:20.170Z,2.13
2023-09-29T06:02:01.909Z,1.77
2023-09-29T06:02:41.749Z,1.90
2023-09-29T06:03:14.160Z,1.80
2023-09-29T06:03:46.406Z,1.58
2023-09-29T06:04:18.742Z,1.92
2023-09-29T06:04:51.012Z,1.83
2023-09-29T06:05:23.437Z,1.77
2023-09-29T06:05:55.620Z,1.70
2023-09-29T06:06:27.764Z,1.83
2023-09-29T06:06:59.882Z,2.03
2023-09-29T06:07:32.009Z,1.88
2023-09-29T06:08:04.288Z,1.83
2023-09-29T06:09:12.912Z,1.75
2023-09-29T06:09:45.070Z,1.65
2023-09-29T06:10:17.232Z,1.70
2023-09-29T06:10:49.410Z,1.90
2023-09-29T06:11:21.710Z,1.80
2023-09-29T06:11:53.825Z,1.63
2023-09-29T06:12:26.375Z,1.77
2023-09-29T06:12:58.494Z,1.63
2023-09-29T06:13:30.823Z,1.70
2023-09-29T06:14:02.960Z,1.70
2023-09-29T06:14:35.261Z,1.85
2023-09-29T06:15:07.853Z,1.90
2023-09-29T06:15:40.165Z,1.48
2023-09-29T06:16:12.321Z,1.80
2023-09-29T06:16:44.438Z,1.80
2023-09-29T06:17:16.631Z,1.75
2023-09-29T06:17:48.917Z,1.70
2023-09-29T06:18:21.139Z,1.73
2023-09-29T06:18:54.039Z,1.70
2023-09-29T06:19:26.264Z,2.08
2023-09-29T06:19:58.389Z,1.70
2023-09-29T06:20:30.490Z,1.73
2023-09-29T06:21:02.701Z,1.48
2023-09-29T06:21:35.795Z,1.70
2023-09-29T06:22:08.118Z,1.70
2023-09-29T06:22:40.322Z,1.73
2023-09-29T06:23:12.404Z,1.70
2023-09-29T06:23:45.034Z,1.92
2023-09-29T06:24:17.219Z,1.60
2023-09-29T06:24:49.375Z,2.00
2023-09-29T06:25:21.484Z,1.80
2023-09-29T06:25:59.968Z,1.48
2023-09-29T06:26:32.103Z,1.70
2023-09-29T06:27:04.207Z,1.70
2023-09-29T06:27:36.523Z,1.50
2023-09-29T06:28:08.659Z,1.77
2023-09-29T06:28:40.872Z,1.70
2023-09-29T06:29:13.313Z,2.10
2023-09-29T06:29:48.268Z,1.55
2023-09-29T06:30:20.956Z,1.42
2023-09-29T06:30:54.103Z,1.63
2023-09-29T06:31:26.248Z,1.70
2023-09-29T06:31:58.355Z,1.63
2023-09-29T06:32:30.429Z,1.67
2023-09-29T06:33:02.661Z,1.40
2023-09-29T06:33:34.922Z,1.65
2023-09-29T06:34:07.137Z,1.63
2023-09-29T06:34:39.431Z,1.65
2023-09-29T06:35:12.300Z,1.52
2023-09-29T06:35:44.408Z,1.80
2023-09-29T06:36:16.581Z,1.50
2023-09-29T06:36:49.155Z,1.65
2023-09-29T06:37:21.295Z,1.83
2023-09-29T06:37:53.583Z,1.42
2023-09-29T06:38:26.202Z,1.50
2023-09-29T06:38:58.353Z,1.80
2023-09-29T06:39:30.722Z,1.55
2023-09-29T06:40:03.182Z,1.90
2023-09-29T06:40:35.318Z,1.50
2023-09-29T06:41:07.929Z,2.08
2023-09-29T06:41:40.125Z,1.67
2023-09-29T06:42:13.141Z,1.50
2023-09-29T06:42:45.317Z,1.70
2023-09-29T06:43:18.543Z,1.70
2023-09-29T06:43:51.217Z,1.70
2023-09-29T06:44:23.806Z,1.67
2023-09-29T06:44:55.890Z,1.80
2023-09-29T06:45:45.722Z,1.80
2023-09-29T06:46:23.189Z,1.40
2023-09-29T06:46:55.412Z,1.60
2023-09-29T06:47:27.558Z,1.40
2023-09-29T06:47:59.757Z,1.60
2023-09-29T06:48:32.006Z,1.80
2023-09-29T06:49:04.290Z,1.70
2023-09-29T06:49:36.704Z,1.73
2023-09-29T06:50:12.001Z,1.95
2023-09-29T06:50:44.354Z,1.52
2023-09-29T06:51:16.968Z,1.77
2023-09-29T06:51:49.985Z,1.63
2023-09-29T06:52:22.218Z,1.52
2023-09-29T06:52:54.342Z,1.80
2023-09-29T06:53:27.803Z,1.50
2023-09-29T06:53:59.903Z,1.60
2023-09-29T06:54:32.164Z,1.52
2023-09-29T06:55:04.470Z,1.55
2023-09-29T06:55:36.586Z,1.67
2023-09-29T06:56:08.724Z,1.67
2023-09-29T06:56:40.999Z,1.67
2023-09-29T06:57:13.227Z,1.60
2023-09-29T06:57:45.641Z,1.45
2023-09-29T06:58:17.779Z,1.70
2023-09-29T06:58:49.934Z,1.60
2023-09-29T06:59:22.536Z,1.40
2023-09-29T06:59:54.736Z,1.80
2023-09-29T07:00:26.912Z,1.35
2023-09-29T07:01:02.183Z,1.60
2023-09-29T07:01:35.024Z,1.38
2023-09-29T07:02:07.367Z,1.80
2023-09-29T07:02:40.020Z,1.55
2023-09-29T07:03:14.411Z,1.90
2023-09-29T07:03:47.131Z,1.80
2023-09-29T07:04:19.544Z,1.60
2023-09-29T07:04:52.699Z,1.52
2023-09-29T07:05:24.922Z,1.75
2023-09-29T07:05:58.676Z,1.92
2023-09-29T07:06:31.174Z,1.70
2023-09-29T07:07:03.273Z,1.60
2023-09-29T07:07:35.467Z,1.70
2023-09-29T07:08:07.522Z,1.70
2023-09-29T07:08:39.756Z,1.35
2023-09-29T07:09:13.617Z,1.70
2023-09-29T07:09:45.803Z,1.60
2023-09-29T07:10:18.575Z,1.67
2023-09-29T07:10:50.688Z,1.80
2023-09-29T07:11:22.790Z,1.60
2023-09-29T07:11:54.924Z,1.25
2023-09-29T07:12:27.065Z,1.67
2023-09-29T07:12:59.153Z,1.38
2023-09-29T07:13:31.524Z,2.17
2023-09-29T07:14:05.567Z,1.30
2023-09-29T07:14:38.297Z,1.83
2023-09-29T07:15:11.252Z,1.75
2023-09-29T07:15:43.395Z,1.60
2023-09-29T07:16:18.779Z,1.65
2023-09-29T07:16:54.078Z,1.50
2023-09-29T07:17:26.199Z,1.95
2023-09-29T07:17:58.412Z,1.50
2023-09-29T07:18:30.688Z,1.50
2023-09-29T07:19:04.702Z,1.60
2023-09-29T07:19:45.579Z,1.48